createdAt,value
2018-01-10T00:00:25.699Z,88.93
2018-01-10T00:01:30.194Z,88.79
2018-01-10T00:02:34.386Z,88.71
2018-01-10T00:03:38.497Z,88.64
2018-01-10T00:04:42.592Z,88.56
2018-01-10T00:05:47.180Z,88.57
2018-01-10T00:06:51.357Z,87.99
2018-01-10T00:07:55.601Z,87.72
2018-01-10T00:08:59.803Z,87.15
2018-01-10T00:10:03.955Z,86.61
2018-01-10T00:11:08.195Z,85.68
2018-01-10T00:12:12.814Z,85.09
2018-01-10T00:13:17.339Z,84.87
2018-01-10T00:14:21.569Z,84.61
2018-01-10T00:15:25.916Z,84.61
2018-01-10T00:16:30.864Z,84.64
2018-01-10T00:17:35.411Z,84.25
2018-01-10T00:18:39.636Z,84.22
2018-01-10T00:19:43.765Z,84.13
2018-01-10T00:20:47.934Z,84.14
2018-01-10T00:21:52.099Z,84.13
2018-01-10T00:22:56.362Z,84.60
2018-01-10T00:24:00.892Z,84.75
2018-01-10T00:25:05.144Z,84.31
2018-01-10T00:26:09.330Z,84.15
2018-01-10T00:27:13.482Z,84.25
2018-01-10T00:28:17.737Z,83.94
2018-01-10T00:29:22.013Z,84.14
2018-01-10T00:30:27.885Z,84.01
2018-01-10T00:31:32.022Z,84.22
2018-01-10T00:32:36.220Z,84.30
2018-01-10T00:33:40.346Z,84.50
2018-01-10T00:34:44.499Z,84.65
2018-01-10T00:35:48.643Z,84.55
2018-01-10T00:36:53.084Z,85.00
2018-01-10T00:37:57.317Z,84.86
2018-01-10T00:39:01.566Z,84.89
2018-01-10T00:40:05.697Z,84.60
2018-01-10T00:41:09.833Z,85.05
2018-01-10T00:42:13.937Z,84.80
2018-01-10T00:43:18.054Z,85.21
2018-01-10T00:44:22.905Z,85.11
2018-01-10T00:45:27.541Z,85.19
2018-01-10T00:46:32.604Z,85.51
2018-01-10T00:47:36.749Z,85.99
2018-01-10T00:48:40.922Z,86.22
2018-01-10T00:49:45.466Z,86.39
2018-01-10T00:50:49.609Z,86.40
2018-01-10T00:51:53.767Z,86.09
2018-01-10T00:52:57.941Z,86.30
2018-01-10T00:54:02.065Z,86.40
2018-01-10T00:55:06.175Z,86.48
2018-01-10T00:56:10.742Z,86.60
2018-01-10T00:57:14.952Z,86.64
2018-01-10T00:58:19.197Z,86.59
2018-01-10T00:59:23.428Z,86.06
2018-01-10T01:00:28.000Z,86.09
2018-01-10T01:01:33.141Z,86.08
2018-01-10T01:02:37.683Z,85.84
2018-01-10T01:03:41.837Z,85.37
2018-01-10T01:04:45.938Z,85.47
2018-01-10T01:05:50.141Z,85.36
2018-01-10T01:06:54.313Z,84.82
2018-01-10T01:07:58.808Z,84.58
2018-01-10T01:09:03.024Z,84.42
2018-01-10T01:10:07.149Z,84.44
2018-01-10T01:11:12.201Z,84.67
2018-01-10T01:12:16.332Z,84.97
2018-01-10T01:13:20.580Z,85.47
2018-01-10T01:14:25.048Z,85.41
2018-01-10T01:15:29.784Z,85.59
2018-01-10T01:16:34.389Z,85.66
2018-01-10T01:17:38.648Z,85.83
2018-01-10T01:18:42.751Z,85.85
2018-01-10T01:19:46.997Z,85.97
2018-01-10T01:20:51.461Z,86.05
2018-01-10T01:21:55.558Z,86.08
2018-01-10T01:22:59.751Z,86.21
2018-01-10T01:24:03.864Z,86.40
2018-01-10T01:25:08.204Z,86.43
2018-01-10T01:26:12.407Z,86.54
2018-01-10T01:27:17.816Z,86.65
2018-01-10T01:28:22.047Z,86.97
2018-01-10T01:29:26.188Z,86.91
2018-01-10T01:30:30.478Z,86.53
2018-01-10T01:31:34.687Z,86.34
2018-01-10T01:32:38.819Z,85.99
2018-01-10T01:33:42.966Z,86.02
2018-01-10T01:34:47.146Z,85.60
2018-01-10T01:35:51.372Z,85.43
2018-01-10T01:36:55.537Z,84.72
2018-01-10T01:38:00.221Z,84.04
2018-01-10T01:39:04.600Z,83.81
2018-01-10T01:40:10.204Z,83.35
2018-01-10T01:41:15.385Z,82.98
2018-01-10T01:42:19.604Z,83.27
2018-01-10T01:43:23.846Z,83.39
2018-01-10T01:44:28.900Z,83.40
2018-01-10T01:45:33.340Z,83.58
2018-01-10T01:46:37.846Z,83.64
2018-01-10T01:47:41.904Z,83.50
2018-01-10T01:48:46.115Z,83.50
2018-01-10T01:49:50.170Z,83.59
2018-01-10T01:50:54.395Z,83.56
2018-01-10T01:51:58.568Z,84.09
2018-01-10T01:53:02.981Z,84.54
2018-01-10T01:54:07.119Z,84.56
2018-01-10T01:55:12.291Z,84.45
2018-01-10T01:56:16.506Z,84.49
2018-01-10T01:57:20.706Z,84.90
2018-01-10T01:58:25.180Z,85.06
2018-01-10T01:59:30.457Z,85.12
2018-01-10T02:00:34.877Z,85.49
2018-01-10T02:01:39.028Z,85.83
2018-01-10T02:02:43.153Z,85.70
2018-01-10T02:03:47.309Z,86.01
2018-01-10T02:04:51.709Z,86.25
2018-01-10T02:05:55.992Z,86.50
2018-01-10T02:07:00.087Z,86.50
2018-01-10T02:08:04.432Z,86.85
2018-01-10T02:09:08.556Z,86.07
2018-01-10T02:10:12.972Z,86.24
2018-01-10T02:11:17.388Z,86.74
2018-01-10T02:12:21.654Z,86.00
2018-01-10T02:13:26.924Z,85.54
2018-01-10T02:14:31.089Z,85.13
2018-01-10T02:15:35.597Z,85.11
2018-01-10T02:16:39.685Z,85.10
2018-01-10T02:17:44.196Z,84.98
2018-01-10T02:18:48.358Z,85.18
2018-01-10T02:19:52.468Z,85.18
2018-01-10T02:20:56.631Z,85.12
2018-01-10T02:22:00.766Z,85.43
2018-01-10T02:23:04.893Z,85.36
2018-01-10T02:24:09.101Z,85.58
2018-01-10T02:25:13.240Z,85.57
2018-01-10T02:26:17.436Z,85.65
2018-01-10T02:27:21.618Z,85.56
2018-01-10T02:28:25.720Z,85.91
2018-01-10T02:29:29.825Z,85.86
2018-01-10T02:30:34.481Z,86.04
2018-01-10T02:31:38.606Z,86.53
2018-01-10T02:32:42.706Z,86.76
2018-01-10T02:33:46.921Z,87.20
2018-01-10T02:34:51.036Z,87.51
2018-01-10T02:35:55.172Z,87.73
2018-01-10T02:36:59.637Z,87.81
2018-01-10T02:38:03.762Z,88.06
2018-01-10T02:39:08.542Z,87.44
2018-01-10T02:40:12.605Z,87.21
2018-01-10T02:41:16.808Z,87.17
2018-01-10T02:42:29.922Z,87.27
2018-01-10T02:43:34.007Z,86.96
2018-01-10T02:44:38.168Z,86.59
2018-01-10T02:45:42.473Z,86.11
2018-01-10T02:46:46.570Z,86.18
2018-01-10T02:47:50.743Z,86.11
2018-01-10T02:48:55.156Z,86.38
2018-01-10T02:49:59.261Z,86.84
2018-01-10T02:51:03.352Z,86.78
2018-01-10T02:52:07.424Z,86.67
2018-01-10T02:53:11.606Z,86.55
2018-01-10T02:54:15.725Z,86.56
2018-01-10T02:55:19.905Z,86.87
2018-01-10T02:56:24.018Z,87.29
2018-01-10T02:57:28.161Z,87.79
2018-01-10T02:58:33.213Z,87.33
2018-01-10T02:59:37.350Z,86.96
2018-01-10T03:00:42.093Z,86.93
2018-01-10T03:01:46.196Z,87.41
2018-01-10T03:02:50.428Z,87.21
2018-01-10T03:03:54.664Z,87.06
2018-01-10T03:04:58.802Z,87.24
2018-01-10T03:06:03.349Z,87.56
2018-01-10T03:07:07.969Z,87.00
2018-01-10T03:08:12.070Z,86.71
2018-01-10T03:09:16.168Z,87.31
2018-01-10T03:10:20.548Z,86.79
2018-01-10T03:11:24.775Z,86.54
2018-01-10T03:12:30.543Z,86.33
2018-01-10T03:13:34.937Z,86.24
2018-01-10T03:14:39.198Z,86.28
2018-01-10T03:15:43.989Z,86.45
2018-01-10T03:16:48.660Z,86.32
2018-01-10T03:17:52.745Z,86.23
2018-01-10T03:18:57.077Z,86.53
2018-01-10T03:20:01.493Z,86.78
2018-01-10T03:21:05.872Z,87.01
2018-01-10T03:22:10.545Z,87.03
2018-01-10T03:23:14.653Z,87.39
2018-01-10T03:24:18.829Z,87.45
2018-01-10T03:25:22.936Z,87.45
2018-01-10T03:26:27.016Z,87.66
2018-01-10T03:27:31.764Z,87.49
2018-01-10T03:28:35.978Z,87.55
2018-01-10T03:29:40.075Z,87.42
2018-01-10T03:30:44.657Z,87.12
2018-01-10T03:31:48.776Z,86.29
2018-01-10T03:32:52.859Z,86.11
2018-01-10T03:33:57.013Z,85.88
2018-01-10T03:35:01.134Z,85.93
2018-01-10T03:36:05.277Z,86.01
2018-01-10T03:37:09.848Z,86.34
2018-01-10T03:39:35.092Z,85.31
2018-01-10T03:40:39.612Z,84.97
2018-01-10T03:41:43.690Z,85.14
2018-01-10T03:42:47.793Z,85.20
2018-01-10T03:43:51.884Z,85.27
2018-01-10T03:44:56.086Z,85.25
2018-01-10T03:46:00.421Z,85.30
2018-01-10T03:47:04.538Z,85.60
2018-01-10T03:48:08.742Z,85.98
2018-01-10T03:49:12.838Z,85.76
2018-01-10T03:50:17.321Z,85.55
2018-01-10T03:51:21.504Z,85.60
2018-01-10T03:52:25.612Z,85.75
2018-01-10T03:53:30.305Z,85.69
2018-01-10T03:54:34.689Z,85.99
2018-01-10T03:55:38.820Z,85.80
2018-01-10T03:56:43.218Z,85.99
2018-01-10T03:57:47.809Z,85.84
2018-01-10T03:58:52.157Z,86.11
2018-01-10T03:59:56.332Z,86.05
2018-01-10T04:01:00.741Z,86.01
2018-01-10T04:02:05.880Z,86.07
2018-01-10T04:03:10.494Z,86.11
2018-01-10T04:04:15.102Z,86.26
2018-01-10T04:05:19.224Z,86.27
2018-01-10T04:06:23.288Z,86.04
2018-01-10T04:07:28.954Z,85.96
2018-01-10T04:08:33.048Z,85.98
2018-01-10T04:09:38.552Z,85.82
2018-01-10T04:10:42.617Z,85.75
2018-01-10T04:11:46.716Z,85.89
2018-01-10T04:12:50.875Z,85.87
2018-01-10T04:13:54.958Z,85.91
2018-01-10T04:14:59.391Z,85.98
2018-01-10T04:16:04.027Z,86.02
2018-01-10T04:17:08.255Z,85.98
2018-01-10T04:18:12.895Z,85.98
2018-01-10T04:19:17.071Z,86.02
2018-01-10T04:20:21.399Z,86.04
2018-01-10T04:21:26.355Z,86.08
2018-01-10T04:22:31.261Z,86.09
2018-01-10T04:23:35.448Z,86.21
2018-01-10T04:24:39.596Z,85.82
2018-01-10T04:25:43.744Z,85.76
2018-01-10T04:26:47.829Z,85.57
2018-01-10T04:27:52.602Z,85.64
2018-01-10T04:28:56.681Z,85.61
2018-01-10T04:30:00.898Z,85.61
2018-01-10T04:31:05.308Z,85.65
2018-01-10T04:32:10.052Z,85.73
2018-01-10T04:33:14.102Z,85.88
2018-01-10T04:34:18.263Z,85.89
2018-01-10T04:35:22.383Z,85.81
2018-01-10T04:36:26.420Z,85.85
2018-01-10T04:38:43.591Z,85.81
2018-01-10T04:39:47.740Z,85.93
2018-01-10T04:40:52.785Z,85.86
2018-01-10T04:41:56.901Z,86.08
2018-01-10T04:43:01.107Z,85.98
2018-01-10T04:44:05.179Z,86.17
2018-01-10T04:45:09.670Z,85.91
2018-01-10T04:46:14.332Z,85.85
2018-01-10T04:47:18.742Z,85.83
2018-01-10T04:48:22.962Z,85.78
2018-01-10T04:49:27.666Z,85.77
2018-01-10T04:50:31.779Z,85.77
2018-01-10T04:51:35.894Z,85.52
2018-01-10T04:52:40.067Z,85.59
2018-01-10T04:53:44.482Z,85.66
2018-01-10T04:54:48.658Z,85.54
2018-01-10T04:55:52.754Z,85.60
2018-01-10T04:56:58.071Z,85.66
2018-01-10T04:58:02.252Z,85.69
2018-01-10T04:59:06.347Z,85.59
2018-01-10T05:00:11.204Z,85.66
2018-01-10T05:01:15.738Z,85.77
2018-01-10T05:02:19.870Z,85.90
2018-01-10T05:03:24.084Z,85.94
2018-01-10T05:04:29.319Z,85.97
2018-01-10T05:05:33.526Z,85.91
2018-01-10T05:06:37.910Z,85.85
2018-01-10T05:07:41.973Z,86.08
2018-01-10T05:08:46.158Z,85.94
2018-01-10T05:09:50.232Z,85.74
2018-01-10T05:10:54.507Z,85.79
2018-01-10T05:11:58.577Z,85.75
2018-01-10T05:13:02.747Z,85.72
2018-01-10T05:14:06.845Z,85.85
2018-01-10T05:15:12.158Z,85.66
2018-01-10T05:16:16.320Z,85.44
2018-01-10T05:17:20.526Z,85.96
2018-01-10T05:18:24.649Z,86.27
2018-01-10T05:19:29.265Z,86.07
2018-01-10T05:20:33.365Z,86.32
2018-01-10T05:21:37.456Z,86.32
2018-01-10T05:22:41.570Z,86.36
2018-01-10T05:23:45.731Z,86.14
2018-01-10T05:24:49.919Z,86.38
2018-01-10T05:25:54.434Z,86.13
2018-01-10T05:26:58.509Z,86.31
2018-01-10T05:28:02.640Z,86.33
2018-01-10T05:29:06.890Z,86.32
2018-01-10T05:30:14.677Z,86.28
2018-01-10T05:31:18.836Z,86.08
2018-01-10T05:32:23.257Z,85.88
2018-01-10T05:33:27.469Z,85.79
2018-01-10T05:34:32.557Z,85.79
2018-01-10T05:35:38.423Z,85.73
2018-01-10T05:36:42.534Z,85.69
2018-01-10T05:37:46.632Z,86.00
2018-01-10T05:38:50.735Z,86.11
2018-01-10T05:39:55.435Z,86.07
2018-01-10T05:40:59.629Z,86.15
2018-01-10T05:42:03.764Z,86.17
2018-01-10T05:43:07.859Z,86.30
2018-01-10T05:44:12.092Z,86.18
2018-01-10T05:45:17.075Z,86.35
2018-01-10T05:46:21.227Z,86.34
2018-01-10T05:47:25.350Z,86.33
2018-01-10T05:48:32.173Z,86.25
2018-01-10T05:49:36.408Z,86.33
2018-01-10T05:50:40.527Z,86.50
2018-01-10T05:51:45.022Z,86.46
2018-01-10T05:52:49.218Z,86.55
2018-01-10T05:53:59.845Z,86.53
2018-01-10T05:55:04.019Z,86.54
2018-01-10T05:56:08.213Z,86.62
2018-01-10T05:57:13.354Z,86.65
2018-01-10T05:58:17.825Z,86.63
2018-01-10T05:59:21.995Z,86.75
2018-01-10T06:00:27.932Z,86.86
2018-01-10T06:01:32.088Z,86.90
2018-01-10T06:02:36.302Z,86.92
2018-01-10T06:03:40.693Z,86.92
2018-01-10T06:04:44.800Z,86.97
2018-01-10T06:05:48.964Z,87.14
2018-01-10T06:06:53.066Z,87.19
2018-01-10T06:07:57.176Z,87.26
2018-01-10T06:09:02.098Z,87.22
2018-01-10T06:10:06.513Z,87.27
2018-01-10T06:11:11.433Z,87.16
2018-01-10T06:12:16.458Z,87.28
2018-01-10T06:13:20.691Z,87.14
2018-01-10T06:14:24.838Z,87.10
2018-01-10T06:15:29.516Z,86.93
2018-01-10T06:16:33.695Z,87.00
2018-01-10T06:17:37.851Z,86.88
2018-01-10T06:18:41.992Z,86.76
2018-01-10T06:19:46.136Z,86.66
2018-01-10T06:20:50.317Z,86.70
2018-01-10T06:21:54.744Z,86.47
2018-01-10T06:22:58.849Z,86.29
2018-01-10T06:24:03.024Z,86.31
2018-01-10T06:25:07.127Z,86.21
2018-01-10T06:26:12.393Z,86.27
2018-01-10T06:27:17.368Z,86.42
2018-01-10T06:28:21.876Z,86.39
2018-01-10T06:29:26.481Z,86.20
2018-01-10T06:30:31.951Z,86.08
2018-01-10T06:31:36.607Z,86.11
2018-01-10T06:32:40.972Z,85.86
2018-01-10T06:33:45.531Z,85.78
2018-01-10T06:34:49.645Z,85.87
2018-01-10T06:35:53.797Z,85.97
2018-01-10T06:36:57.993Z,86.05
2018-01-10T06:38:02.190Z,85.89
2018-01-10T06:39:06.722Z,85.83
2018-01-10T06:40:11.430Z,85.69
2018-01-10T06:41:16.689Z,85.62
2018-01-10T06:42:20.955Z,85.70
2018-01-10T06:43:25.035Z,85.71
2018-01-10T06:44:30.112Z,85.57
2018-01-10T06:45:34.505Z,85.71
2018-01-10T06:46:39.178Z,85.51
2018-01-10T06:47:43.588Z,85.58
2018-01-10T06:48:47.670Z,85.65
2018-01-10T06:49:51.742Z,85.58
2018-01-10T06:50:55.935Z,85.66
2018-01-10T06:52:00.022Z,85.87
2018-01-10T06:53:04.578Z,85.73
2018-01-10T06:54:08.714Z,85.54
2018-01-10T06:55:13.529Z,85.54
2018-01-10T06:56:17.631Z,85.54
2018-01-10T06:57:22.945Z,85.50
2018-01-10T06:58:31.352Z,85.31
2018-01-10T06:59:35.485Z,85.34
2018-01-10T07:00:40.021Z,85.34
2018-01-10T07:01:45.155Z,85.35
2018-01-10T07:02:49.265Z,85.50
2018-01-10T07:03:53.333Z,85.60
2018-01-10T07:04:57.466Z,85.56
2018-01-10T07:06:02.007Z,85.52
2018-01-10T07:07:06.226Z,85.67
2018-01-10T07:08:11.391Z,85.80
2018-01-10T07:09:16.265Z,85.93
2018-01-10T07:10:20.501Z,85.87
2018-01-10T07:11:24.682Z,85.83
2018-01-10T07:12:29.686Z,85.93
2018-01-10T07:13:33.776Z,85.91
2018-01-10T07:14:38.186Z,85.86
2018-01-10T07:15:42.685Z,85.94
2018-01-10T07:16:47.045Z,85.87
2018-01-10T07:17:51.695Z,85.84
2018-01-10T07:18:55.954Z,85.89
2018-01-10T07:20:00.376Z,85.94
2018-01-10T07:21:04.625Z,85.89
2018-01-10T07:22:08.741Z,85.88
2018-01-10T07:23:13.228Z,85.89
2018-01-10T07:24:17.329Z,85.89
2018-01-10T07:25:21.522Z,85.83
2018-01-10T07:26:25.744Z,85.76
2018-01-10T07:27:30.461Z,85.69
2018-01-10T07:28:34.582Z,85.65
2018-01-10T07:29:38.953Z,85.75
2018-01-10T07:30:43.403Z,85.76
2018-01-10T07:31:47.606Z,85.78
2018-01-10T07:32:51.716Z,86.11
2018-01-10T07:33:55.797Z,86.04
2018-01-10T07:34:59.953Z,85.88
2018-01-10T07:36:04.082Z,85.87
2018-01-10T07:37:08.513Z,85.96
2018-01-10T07:38:13.791Z,85.95
2018-01-10T07:39:17.956Z,85.95
2018-01-10T07:40:22.123Z,85.82
2018-01-10T07:41:26.319Z,85.72
2018-01-10T07:42:31.450Z,85.82
2018-01-10T07:43:35.868Z,86.04
2018-01-10T07:44:40.076Z,86.19
2018-01-10T07:45:44.617Z,86.19
2018-01-10T07:46:48.853Z,86.16
2018-01-10T07:47:52.988Z,86.00
2018-01-10T07:48:57.383Z,86.32
2018-01-10T07:50:01.606Z,85.74
2018-01-10T07:51:05.736Z,85.40
2018-01-10T07:52:09.841Z,85.19
2018-01-10T07:53:13.942Z,85.22
2018-01-10T07:54:18.076Z,85.17
2018-01-10T07:55:22.328Z,84.78
2018-01-10T07:56:26.812Z,84.73
2018-01-10T07:57:31.547Z,84.83
2018-01-10T07:58:35.652Z,84.62
2018-01-10T07:59:39.892Z,84.96
2018-01-10T08:00:44.411Z,85.15
2018-01-10T08:01:48.529Z,84.94
2018-01-10T08:02:52.914Z,85.01
2018-01-10T08:04:58.309Z,85.08
2018-01-10T08:06:02.435Z,84.93
2018-01-10T08:07:09.909Z,84.64
2018-01-10T08:08:14.350Z,84.70
2018-01-10T08:09:18.560Z,84.70
2018-01-10T08:10:22.816Z,84.48
2018-01-10T08:11:26.912Z,84.29
2018-01-10T08:12:31.015Z,83.97
2018-01-10T08:13:35.109Z,83.85
2018-01-10T08:14:39.237Z,84.19
2018-01-10T08:15:43.449Z,84.31
2018-01-10T08:16:47.566Z,84.28
2018-01-10T08:17:51.684Z,83.94
2018-01-10T08:18:55.811Z,83.82
2018-01-10T08:20:00.269Z,83.98
2018-01-10T08:21:04.464Z,83.95
2018-01-10T08:22:08.598Z,83.45
2018-01-10T08:23:13.334Z,83.50
2018-01-10T08:24:17.480Z,83.52
2018-01-10T08:25:21.929Z,83.51
2018-01-10T08:26:26.981Z,83.58
2018-01-10T08:27:31.113Z,83.67
2018-01-10T08:28:35.218Z,83.56
2018-01-10T08:29:40.402Z,83.47
2018-01-10T08:30:44.862Z,83.51
2018-01-10T08:31:49.129Z,83.08
2018-01-10T08:32:53.645Z,82.98
2018-01-10T08:33:58.814Z,82.70
2018-01-10T08:35:03.063Z,82.71
2018-01-10T08:36:07.144Z,82.65
2018-01-10T08:37:12.456Z,82.72
2018-01-10T08:38:16.546Z,82.57
2018-01-10T08:39:20.682Z,82.21
2018-01-10T08:40:24.821Z,82.35
2018-01-10T08:41:29.553Z,82.54
2018-01-10T08:42:33.720Z,82.83
2018-01-10T08:43:38.178Z,83.20
2018-01-10T08:44:42.346Z,83.18
2018-01-10T08:45:46.892Z,83.14
2018-01-10T08:46:51.097Z,83.12
2018-01-10T08:47:55.323Z,83.11
2018-01-10T08:48:59.474Z,83.22
2018-01-10T08:50:03.646Z,83.42
2018-01-10T08:51:07.765Z,83.64
2018-01-10T08:52:11.992Z,83.70
2018-01-10T08:53:17.060Z,83.61
2018-01-10T08:54:21.219Z,83.62
2018-01-10T08:55:25.697Z,83.46
2018-01-10T08:56:30.854Z,83.43
2018-01-10T08:57:34.989Z,83.61
2018-01-10T08:58:39.144Z,83.67
2018-01-10T08:59:43.291Z,83.55
2018-01-10T09:00:48.087Z,83.51
2018-01-10T09:01:52.585Z,83.31
2018-01-10T09:02:56.822Z,83.38
2018-01-10T09:04:01.037Z,83.34
2018-01-10T09:05:05.293Z,83.29
2018-01-10T09:06:09.485Z,83.26
2018-01-10T09:07:15.099Z,83.33
2018-01-10T09:08:19.236Z,83.54
2018-01-10T09:09:23.450Z,83.27
2018-01-10T09:10:27.675Z,83.47
2018-01-10T09:11:32.879Z,83.41
2018-01-10T09:12:37.027Z,83.50
2018-01-10T09:13:41.450Z,83.61
2018-01-10T09:14:45.542Z,83.48
2018-01-10T09:15:49.775Z,83.37
2018-01-10T09:16:53.909Z,83.37
2018-01-10T09:17:58.072Z,83.39
2018-01-10T09:19:02.358Z,83.34
2018-01-10T09:20:06.505Z,83.24
2018-01-10T09:21:10.656Z,83.33
2018-01-10T09:22:15.681Z,83.27
2018-01-10T09:23:19.783Z,83.05
2018-01-10T09:24:23.889Z,83.06
2018-01-10T09:25:28.079Z,83.05
2018-01-10T09:26:33.137Z,83.13
2018-01-10T09:27:37.353Z,83.01
2018-01-10T09:28:41.586Z,83.01
2018-01-10T09:29:45.725Z,82.85
2018-01-10T09:30:49.965Z,82.63
2018-01-10T09:31:54.292Z,82.18
2018-01-10T09:32:59.017Z,82.18
2018-01-10T09:34:03.416Z,81.95
2018-01-10T09:35:08.022Z,82.17
2018-01-10T09:36:12.818Z,81.74
2018-01-10T09:37:16.949Z,81.55
2018-01-10T09:38:21.190Z,80.29
2018-01-10T09:39:25.699Z,79.60
2018-01-10T09:40:32.994Z,78.86
2018-01-10T09:41:37.212Z,79.23
2018-01-10T09:42:41.390Z,79.23
2018-01-10T09:43:45.597Z,78.91
2018-01-10T09:44:49.792Z,79.69
2018-01-10T09:45:54.740Z,80.02
2018-01-10T09:46:58.890Z,79.72
2018-01-10T09:48:03.382Z,79.29
2018-01-10T09:49:07.581Z,79.63
2018-01-10T09:50:11.760Z,78.77
2018-01-10T09:51:15.894Z,79.65
2018-01-10T09:52:20.494Z,79.92
2018-01-10T09:53:24.674Z,79.54
2018-01-10T09:54:28.917Z,79.98
2018-01-10T09:55:33.424Z,78.78
2018-01-10T09:56:37.628Z,78.65
2018-01-10T09:57:41.988Z,78.33
2018-01-10T09:58:46.563Z,77.79
2018-01-10T09:59:50.703Z,77.93
2018-01-10T10:00:55.250Z,78.44
2018-01-10T10:01:59.457Z,78.13
2018-01-10T10:03:03.700Z,77.55
2018-01-10T10:04:07.853Z,77.53
2018-01-10T10:05:13.014Z,77.74
2018-01-10T10:06:17.258Z,77.40
2018-01-10T10:07:21.500Z,77.09
2018-01-10T10:08:25.644Z,77.41
2018-01-10T10:09:29.761Z,76.81
2018-01-10T10:10:34.284Z,76.42
2018-01-10T10:11:38.377Z,75.64
2018-01-10T10:12:42.513Z,75.25
2018-01-10T10:13:46.679Z,74.89
2018-01-10T10:14:50.811Z,75.14
2018-01-10T10:15:55.395Z,74.23
2018-01-10T10:16:59.988Z,74.62
2018-01-10T10:18:04.698Z,72.61
2018-01-10T10:19:09.043Z,72.65
2018-01-10T10:20:13.993Z,73.37
2018-01-10T10:21:18.164Z,73.92
2018-01-10T10:22:22.364Z,74.05
2018-01-10T10:23:26.978Z,74.14
2018-01-10T10:24:31.140Z,74.68
2018-01-10T10:25:35.301Z,75.21
2018-01-10T10:26:39.514Z,75.69
2018-01-10T10:27:44.465Z,75.62
2018-01-10T10:28:48.746Z,76.66
2018-01-10T10:29:52.939Z,77.11
2018-01-10T10:30:57.418Z,76.82
2018-01-10T10:32:01.629Z,76.73
2018-01-10T10:33:05.827Z,76.98
2018-01-10T10:34:11.173Z,77.33
2018-01-10T10:35:16.184Z,77.74
2018-01-10T10:36:20.548Z,78.12
2018-01-10T10:37:25.002Z,78.62
2018-01-10T10:38:30.205Z,78.86
2018-01-10T10:39:34.477Z,78.99
2018-01-10T10:40:38.584Z,78.68
2018-01-10T10:45:59.195Z,78.53
2018-01-10T10:50:07.780Z,78.64
2018-01-10T10:51:11.991Z,78.20
2018-01-10T10:52:16.087Z,78.40
2018-01-10T10:53:20.203Z,78.28
2018-01-10T10:54:24.552Z,78.77
2018-01-10T10:55:28.854Z,78.80
2018-01-10T10:56:32.965Z,78.79
2018-01-10T10:57:37.251Z,78.41
2018-01-10T10:58:41.489Z,78.92
2018-01-10T10:59:45.634Z,78.86
2018-01-10T11:00:50.178Z,78.84
2018-01-10T11:01:54.582Z,79.25
2018-01-10T11:02:58.778Z,79.27
2018-01-10T11:04:02.992Z,79.77
2018-01-10T11:05:07.148Z,79.88
2018-01-10T11:06:11.297Z,80.11
2018-01-10T11:07:15.434Z,80.32
2018-01-10T11:08:20.066Z,80.27
2018-01-10T11:09:24.270Z,80.40
2018-01-10T11:10:28.474Z,80.25
2018-01-10T11:11:32.637Z,80.46
2018-01-10T11:12:36.789Z,80.05
2018-01-10T11:13:41.031Z,80.44
2018-01-10T11:14:45.586Z,80.57
2018-01-10T11:15:50.068Z,80.91
2018-01-10T11:16:54.338Z,81.08
2018-01-10T11:17:59.257Z,81.01
2018-01-10T11:19:03.871Z,80.84
2018-01-10T11:20:08.084Z,80.90
2018-01-10T11:21:12.219Z,81.23
2018-01-10T11:22:16.357Z,81.50
2018-01-10T11:23:20.630Z,81.77
2018-01-10T11:24:24.879Z,81.52
2018-01-10T11:25:29.682Z,81.67
2018-01-10T11:26:33.829Z,81.62
2018-01-10T11:27:38.277Z,81.57
2018-01-10T11:28:43.857Z,81.67
2018-01-10T11:31:00.233Z,81.92
2018-01-10T11:32:04.673Z,81.96
2018-01-10T11:33:09.107Z,81.75
2018-01-10T11:34:14.273Z,81.54
2018-01-10T11:35:18.476Z,81.51
2018-01-10T11:36:22.674Z,81.41
2018-01-10T11:37:26.908Z,81.43
2018-01-10T11:38:31.861Z,80.92
2018-01-10T11:39:36.136Z,81.28
2018-01-10T11:40:40.290Z,81.48
2018-01-10T11:41:44.489Z,81.02
2018-01-10T11:42:48.748Z,81.19
2018-01-10T11:43:52.919Z,81.15
2018-01-10T11:44:57.080Z,80.81
2018-01-10T11:46:01.685Z,80.35
2018-01-10T11:47:05.829Z,79.56
2018-01-10T11:48:10.039Z,79.50
2018-01-10T11:49:14.193Z,79.44
2018-01-10T11:50:18.812Z,79.70
2018-01-10T11:51:23.869Z,79.80
2018-01-10T11:52:28.109Z,80.05
2018-01-10T11:53:32.442Z,80.03
2018-01-10T11:54:37.772Z,79.55
2018-01-10T11:55:41.976Z,79.84
2018-01-10T11:56:46.566Z,79.33
2018-01-10T11:57:51.062Z,79.40
2018-01-10T11:58:55.204Z,79.89
2018-01-10T12:00:00.385Z,79.80
2018-01-10T12:01:04.896Z,80.00
2018-01-10T12:02:09.121Z,79.98
2018-01-10T12:03:13.606Z,80.18
2018-01-10T12:04:17.869Z,79.79
2018-01-10T12:05:22.133Z,79.89
2018-01-10T12:06:26.404Z,79.54
2018-01-10T12:07:30.618Z,79.98
2018-01-10T12:08:34.791Z,80.21
2018-01-10T12:09:39.307Z,80.03
2018-01-10T12:10:43.480Z,79.52
2018-01-10T12:11:47.821Z,79.70
2018-01-10T12:12:52.066Z,79.19
2018-01-10T12:13:56.298Z,79.25
2018-01-10T12:15:00.591Z,79.30
2018-01-10T12:16:04.844Z,79.35
2018-01-10T12:17:09.128Z,79.38
2018-01-10T12:18:14.058Z,79.13
2018-01-10T12:19:18.321Z,79.08
2018-01-10T12:20:22.825Z,78.64
2018-01-10T12:21:27.232Z,78.41
2018-01-10T12:22:31.929Z,78.50
2018-01-10T12:23:36.523Z,78.27
2018-01-10T12:24:40.877Z,77.99
2018-01-10T12:25:45.191Z,78.27
2018-01-10T12:26:49.652Z,78.23
2018-01-10T12:27:54.193Z,78.59
2018-01-10T12:28:58.353Z,78.42
2018-01-10T12:30:04.487Z,78.66
2018-01-10T12:31:09.034Z,78.68
2018-01-10T12:32:13.362Z,78.31
2018-01-10T12:33:17.778Z,77.70
2018-01-10T12:34:22.490Z,78.03
2018-01-10T12:35:26.718Z,77.46
2018-01-10T12:36:31.000Z,77.77
2018-01-10T12:37:35.165Z,77.96
2018-01-10T12:38:39.354Z,77.60
2018-01-10T12:39:43.535Z,77.61
2018-01-10T12:40:47.754Z,77.75
2018-01-10T12:41:52.003Z,77.68
2018-01-10T12:42:56.809Z,77.71
2018-01-10T12:44:01.036Z,77.71
2018-01-10T12:45:06.498Z,77.50
2018-01-10T12:46:10.829Z,77.40
2018-01-10T12:47:15.417Z,77.38
2018-01-10T12:48:21.040Z,77.57
2018-01-10T12:49:25.503Z,77.90
2018-01-10T12:50:29.770Z,78.33
2018-01-10T12:51:33.958Z,78.50
2018-01-10T12:52:38.566Z,78.88
2018-01-10T12:53:42.775Z,79.00
2018-01-10T12:54:46.922Z,78.71
2018-01-10T12:55:54.234Z,78.69
2018-01-10T12:56:58.517Z,78.43
2018-01-10T12:58:02.723Z,78.75
2018-01-10T12:59:07.355Z,78.41
2018-01-10T13:00:13.375Z,78.58
2018-01-10T13:01:18.878Z,78.94
2018-01-10T13:02:23.176Z,78.49
2018-01-10T13:03:27.424Z,78.27
2018-01-10T13:04:32.244Z,78.30
2018-01-10T13:05:36.743Z,78.64
2018-01-10T13:06:41.363Z,78.60
2018-01-10T13:07:45.511Z,78.10
2018-01-10T13:08:50.522Z,78.19
2018-01-10T13:09:54.753Z,78.60
2018-01-10T13:11:59.578Z,78.97
2018-01-10T13:13:03.929Z,78.91
2018-01-10T13:14:08.075Z,78.93
2018-01-10T13:15:14.613Z,79.02
2018-01-10T13:16:19.627Z,79.30
2018-01-10T13:17:24.265Z,79.45
2018-01-10T13:18:28.501Z,79.40
2018-01-10T13:19:32.802Z,79.17
2018-01-10T13:20:37.200Z,79.30
2018-01-10T13:21:41.501Z,79.53
2018-01-10T13:22:45.759Z,79.51
2018-01-10T13:23:52.725Z,79.62
2018-01-10T13:24:56.972Z,79.30
2018-01-10T13:26:01.268Z,79.34
2018-01-10T13:27:05.577Z,79.58
2018-01-10T13:28:09.766Z,79.60
2018-01-10T13:29:14.011Z,80.01
2018-01-10T13:30:19.827Z,80.25
2018-01-10T13:31:24.018Z,80.53
2018-01-10T13:32:28.412Z,80.80
2018-01-10T13:33:33.803Z,80.76
2018-01-10T13:34:38.008Z,80.62
2018-01-10T13:35:42.420Z,80.46
2018-01-10T13:36:46.608Z,80.14
2018-01-10T13:37:50.922Z,80.00
2018-01-10T13:38:55.267Z,80.10
2018-01-10T13:39:59.454Z,80.04
2018-01-10T13:41:03.675Z,80.02
2018-01-10T13:42:08.384Z,80.18
2018-01-10T13:43:12.655Z,80.27
2018-01-10T13:44:18.139Z,80.32
2018-01-10T13:45:22.610Z,80.48
2018-01-10T13:46:26.912Z,80.74
2018-01-10T13:47:31.716Z,80.78
2018-01-10T13:48:36.434Z,81.09
2018-01-10T13:49:41.002Z,80.88
2018-01-10T13:50:45.404Z,80.73
2018-01-10T13:51:49.764Z,80.70
2018-01-10T13:52:54.522Z,80.45
2018-01-10T13:53:59.059Z,80.41
2018-01-10T13:55:03.566Z,80.56
2018-01-10T13:56:07.725Z,80.62
2018-01-10T13:57:12.119Z,80.65
2018-01-10T13:58:17.335Z,80.50
2018-01-10T13:59:22.385Z,80.66
2018-01-10T14:00:27.417Z,80.79
2018-01-10T14:01:32.336Z,80.80
2018-01-10T14:02:36.570Z,80.82